Time;durP1;ratioP1;P1;durP2;ratioP2;P2;SDS_P1;SDS_P2;PMS_P1;PMS_P2;Temp;Humidity;BMP_temperature;BMP_pressure;BME280_temperature;BME280_humidity;BME280_pressure;Samples;Min_cycle;Max_cycle;Signal;HPM_P1;HPM_P2
2022/09/03 00:01:15;;;;;;;;;11.00;11.00;;;;;;;;4984536;27;45438;-71
2022/09/03 00:03:46;;;;;;;;;9.67;9.33;;;;;;;;4985120;27;45961;-71
2022/09/03 00:06:16;;;;;;;;;12.00;10.33;;;;;;;;4986007;27;45179;-71
2022/09/03 00:08:41;;;;;;;;;11.00;11.00;;;;;;;;4984654;27;45528;-71
2022/09/03 00:11:06;;;;;;;;;12.33;11.00;;;;;;;;4987005;27;45285;-71
2022/09/03 00:13:42;;;;;;;;;11.00;10.00;;;;;;;;4992746;27;46280;-71
2022/09/03 00:16:10;;;;;;;;;9.00;9.00;;;;;;;;4990953;27;45296;-71
2022/09/03 00:18:40;;;;;;;;;13.00;10.67;;;;;;;;4983195;27;45449;-71
2022/09/03 00:21:07;;;;;;;;;11.67;11.00;;;;;;;;4990828;27;46159;-71
2022/09/03 00:23:36;;;;;;;;;14.00;11.67;;;;;;;;4990254;27;46452;-71
2022/09/03 00:26:10;;;;;;;;;11.00;11.00;;;;;;;;4989963;27;45311;-71
2022/09/03 00:28:38;;;;;;;;;12.00;11.00;;;;;;;;4982598;28;45468;-71
2022/09/03 00:31:11;;;;;;;;;10.67;10.67;;;;;;;;4991712;27;45225;-70
2022/09/03 00:33:38;;;;;;;;;11.00;11.00;;;;;;;;4987456;27;45438;-71
2022/09/03 00:36:09;;;;;;;;;14.00;11.33;;;;;;;;4991828;27;45342;-71
2022/09/03 00:38:36;;;;;;;;;13.00;11.67;;;;;;;;4981931;28;45407;-71
2022/09/03 00:41:01;;;;;;;;;12.67;11.33;;;;;;;;4983470;28;45906;-71
2022/09/03 00:43:34;;;;;;;;;13.00;12.00;;;;;;;;4983592;27;46033;-73
2022/09/03 00:46:08;;;;;;;;;10.33;10.00;;;;;;;;4994651;27;45763;-71
2022/09/03 00:48:44;;;;;;;;;11.67;9.33;;;;;;;;4980050;28;45418;-71
2022/09/03 00:51:19;;;;;;;;;11.33;10.67;;;;;;;;4987609;27;45456;-71
2022/09/03 00:53:59;;;;;;;;;11.00;10.00;;;;;;;;4981083;27;45450;-71
2022/09/03 00:56:47;;;;;;;;;8.33;8.33;;;;;;;;4980121;28;45708;-71
2022/09/03 00:59:19;;;;;;;;;8.67;8.67;;;;;;;;4983185;27;45318;-71
2022/09/03 01:02:09;;;;;;;;;11.33;10.00;;;;;;;;4989033;28;45236;-71
2022/09/03 01:04:46;;;;;;;;;9.67;9.00;;;;;;;;4985304;28;45299;-70
2022/09/03 01:07:20;;;;;;;;;10.67;8.67;;;;;;;;4979266;27;45420;-71
2022/09/03 01:09:52;;;;;;;;;8.67;8.67;;;;;;;;4982175;28;45501;-71
2022/09/03 01:12:34;;;;;;;;;7.67;7.67;;;;;;;;4981266;27;45277;-71
2022/09/03 01:15:00;;;;;;;;;7.67;7.67;;;;;;;;4985762;27;45511;-71
2022/09/03 01:17:43;;;;;;;;;7.33;7.33;;;;;;;;4982358;28;45861;-71
2022/09/03 01:20:24;;;;;;;;;9.67;8.67;;;;;;;;4989130;28;45438;-70
2022/09/03 01:23:07;;;;;;;;;6.33;6.33;;;;;;;;4981568;28;45449;-71
2022/09/03 01:25:52;;;;;;;;;11.00;10.33;;;;;;;;4993932;27;45615;-71
2022/09/03 01:28:33;;;;;;;;;12.00;9.00;;;;;;;;4986486;27;45403;-71
2022/09/03 01:31:01;;;;;;;;;8.00;8.00;;;;;;;;4987504;27;45383;-71
2022/09/03 01:33:27;;;;;;;;;9.33;8.33;;;;;;;;4986511;27;45570;-70
2022/09/03 01:35:59;;;;;;;;;10.00;10.00;;;;;;;;4998567;27;46205;-70
2022/09/03 01:38:24;;;;;;;;;11.33;9.00;;;;;;;;4985751;28;45391;-70
2022/09/03 01:40:56;;;;;;;;;9.67;8.00;;;;;;;;4991019;27;45526;-71
2022/09/03 01:43:40;;;;;;;;;10.67;8.33;;;;;;;;4988713;28;46285;-71
2022/09/03 01:46:32;;;;;;;;;7.00;7.00;;;;;;;;4989795;28;45480;-71
2022/09/03 01:49:04;;;;;;;;;8.67;8.00;;;;;;;;4982895;27;46066;-71
2022/09/03 01:51:31;;;;;;;;;8.33;8.33;;;;;;;;4994743;27;45164;-71
2022/09/03 01:54:00;;;;;;;;;8.67;8.33;;;;;;;;4981694;27;45472;-71
2022/09/03 01:56:44;;;;;;;;;7.67;7.67;;;;;;;;4986511;28;46155;-71
2022/09/03 01:59:26;;;;;;;;;10.00;8.33;;;;;;;;4983678;27;45348;-71
2022/09/03 02:01:59;;;;;;;;;8.67;7.33;;;;;;;;4979442;28;45348;-71
2022/09/03 02:04:25;;;;;;;;;10.00;8.00;;;;;;;;4984789;27;45437;-71
2022/09/03 02:06:51;;;;;;;;;6.00;6.00;;;;;;;;4991086;27;45637;-71
2022/09/03 02:09:17;;;;;;;;;8.33;8.33;;;;;;;;4983478;28;45434;-71
2022/09/03 02:11:45;;;;;;;;;10.67;9.00;;;;;;;;4985167;28;45410;-71
2022/09/03 02:14:11;;;;;;;;;8.33;8.33;;;;;;;;4985822;28;45118;-71
2022/09/03 02:16:37;;;;;;;;;8.33;6.67;;;;;;;;4991513;28;46684;-71
2022/09/03 02:19:04;;;;;;;;;9.00;8.33;;;;;;;;4987712;28;45383;-71
2022/09/03 02:21:35;;;;;;;;;10.00;9.67;;;;;;;;4990613;27;45452;-70
2022/09/03 02:24:02;;;;;;;;;8.00;8.00;;;;;;;;4978815;27;45486;-70
2022/09/03 02:26:27;;;;;;;;;8.00;8.00;;;;;;;;4981685;28;45488;-71
2022/09/03 02:28:53;;;;;;;;;7.67;7.67;;;;;;;;4979374;28;45236;-70
2022/09/03 02:31:18;;;;;;;;;8.67;7.67;;;;;;;;4982266;28;45247;-71
2022/09/03 02:33:45;;;;;;;;;8.67;8.67;;;;;;;;4991313;27;45536;-71
2022/09/03 02:36:11;;;;;;;;;8.00;8.00;;;;;;;;4993632;27;46043;-70
2022/09/03 02:38:37;;;;;;;;;9.00;7.33;;;;;;;;4981856;27;45403;-70
2022/09/03 02:41:02;;;;;;;;;8.00;8.00;;;;;;;;4989893;27;45323;-70
2022/09/03 02:43:41;;;;;;;;;8.00;7.67;;;;;;;;4983715;27;45544;-71
2022/09/03 02:46:13;;;;;;;;;6.67;6.67;;;;;;;;4981252;28;46390;-71
2022/09/03 02:48:39;;;;;;;;;7.33;6.00;;;;;;;;4978073;28;45425;-71
2022/09/03 02:51:04;;;;;;;;;9.00;9.00;;;;;;;;4993947;28;45461;-71
2022/09/03 02:53:29;;;;;;;;;7.33;6.33;;;;;;;;4981085;27;45464;-71
2022/09/03 02:56:00;;;;;;;;;8.00;8.00;;;;;;;;4984384;28;45949;-72
2022/09/03 02:58:26;;;;;;;;;9.33;8.00;;;;;;;;4983883;28;45419;-71
2022/09/03 03:00:52;;;;;;;;;7.33;7.33;;;;;;;;4985975;28;45454;-72
2022/09/03 03:03:17;;;;;;;;;9.67;9.67;;;;;;;;4987860;28;45266;-71
2022/09/03 03:05:47;;;;;;;;;8.00;8.00;;;;;;;;4981002;28;45424;-70
2022/09/03 03:08:13;;;;;;;;;7.67;7.67;;;;;;;;4982325;28;45656;-70
2022/09/03 03:10:40;;;;;;;;;7.00;6.00;;;;;;;;4988398;28;45325;-71
2022/09/03 03:13:05;;;;;;;;;7.33;7.33;;;;;;;;4982452;28;45416;-71
2022/09/03 03:15:30;;;;;;;;;8.00;7.00;;;;;;;;4983915;28;45535;-71
2022/09/03 03:17:56;;;;;;;;;9.00;7.67;;;;;;;;4982032;28;45358;-71
2022/09/03 03:20:21;;;;;;;;;7.67;6.67;;;;;;;;4991525;28;45514;-71
2022/09/03 03:22:46;;;;;;;;;6.33;6.33;;;;;;;;4988312;27;45472;-70
2022/09/03 03:25:12;;;;;;;;;5.67;5.00;;;;;;;;4992544;27;46983;-71
2022/09/03 03:27:40;;;;;;;;;9.33;9.33;;;;;;;;4992636;27;46068;-71
2022/09/03 03:30:08;;;;;;;;;9.00;8.00;;;;;;;;4986215;27;45541;-71
2022/09/03 03:32:34;;;;;;;;;11.33;8.00;;;;;;;;4995948;27;47235;-71
2022/09/03 03:34:59;;;;;;;;;10.00;9.00;;;;;;;;5001645;27;45383;-71
2022/09/03 03:37:24;;;;;;;;;11.67;8.00;;;;;;;;4983929;27;45882;-70
2022/09/03 03:39:49;;;;;;;;;12.33;9.33;;;;;;;;4994917;27;45386;-71
2022/09/03 03:42:14;;;;;;;;;8.00;8.00;;;;;;;;4985416;27;45488;-72
2022/09/03 03:44:41;;;;;;;;;5.33;5.33;;;;;;;;4978617;27;46253;-70
2022/09/03 03:47:06;;;;;;;;;10.33;9.00;;;;;;;;4980858;28;45220;-70
2022/09/03 03:49:31;;;;;;;;;9.00;9.00;;;;;;;;4992651;28;45377;-71
2022/09/03 03:51:56;;;;;;;;;6.00;6.00;;;;;;;;4996196;28;45557;-71
2022/09/03 03:54:22;;;;;;;;;10.33;8.33;;;;;;;;4990538;28;45274;-71
2022/09/03 03:56:47;;;;;;;;;10.00;9.00;;;;;;;;4996974;27;45390;-72
2022/09/03 03:59:12;;;;;;;;;11.00;9.00;;;;;;;;4991320;28;45384;-72
2022/09/03 04:01:37;;;;;;;;;9.67;9.67;;;;;;;;4997526;28;45306;-72
2022/09/03 04:04:04;;;;;;;;;10.00;10.00;;;;;;;;4990800;28;45543;-71
2022/09/03 04:06:29;;;;;;;;;9.33;8.67;;;;;;;;4997692;28;45315;-71
2022/09/03 04:08:54;;;;;;;;;13.00;10.67;;;;;;;;4991722;28;45442;-71
2022/09/03 04:11:21;;;;;;;;;9.67;9.67;;;;;;;;4996261;28;45400;-71
2022/09/03 04:13:47;;;;;;;;;10.67;9.00;;;;;;;;4992424;28;46156;-71
2022/09/03 04:16:17;;;;;;;;;10.00;9.00;;;;;;;;4996285;28;44720;-72
2022/09/03 04:18:42;;;;;;;;;9.00;9.00;;;;;;;;4994163;27;45485;-71
2022/09/03 04:21:09;;;;;;;;;10.67;10.67;;;;;;;;4995967;28;45395;-71
2022/09/03 04:23:35;;;;;;;;;11.67;10.33;;;;;;;;4986682;27;45399;-71
2022/09/03 04:26:01;;;;;;;;;12.67;10.00;;;;;;;;4995911;27;45426;-71
2022/09/03 04:28:26;;;;;;;;;9.33;9.33;;;;;;;;4986942;28;45440;-71
2022/09/03 04:30:52;;;;;;;;;11.33;8.67;;;;;;;;4989933;28;45407;-71
2022/09/03 04:33:18;;;;;;;;;12.67;11.33;;;;;;;;4992070;27;45515;-71
2022/09/03 04:35:43;;;;;;;;;12.00;11.00;;;;;;;;4997307;27;45425;-71
2022/09/03 04:38:08;;;;;;;;;9.00;8.00;;;;;;;;4992588;28;45864;-71
2022/09/03 04:40:33;;;;;;;;;11.33;9.00;;;;;;;;4995803;27;45423;-71
2022/09/03 04:42:59;;;;;;;;;12.33;8.00;;;;;;;;4988494;28;46037;-71
2022/09/03 04:45:25;;;;;;;;;6.33;6.00;;;;;;;;4984911;28;45475;-71
2022/09/03 04:47:57;;;;;;;;;13.00;11.33;;;;;;;;4981455;28;45466;-71
2022/09/03 04:50:22;;;;;;;;;11.00;11.00;;;;;;;;4992719;28;45287;-71
2022/09/03 04:52:47;;;;;;;;;8.67;8.67;;;;;;;;4990717;28;46049;-70
2022/09/03 04:55:13;;;;;;;;;9.00;9.00;;;;;;;;4994328;28;45221;-71
2022/09/03 04:57:38;;;;;;;;;8.33;8.33;;;;;;;;4994753;27;45296;-71
2022/09/03 05:00:03;;;;;;;;;10.67;10.00;;;;;;;;4994394;28;45270;-71
2022/09/03 05:02:29;;;;;;;;;9.67;9.67;;;;;;;;4993504;28;47550;-71
2022/09/03 05:04:54;;;;;;;;;12.00;10.00;;;;;;;;4992900;27;45357;-71
2022/09/03 05:07:19;;;;;;;;;9.67;9.67;;;;;;;;4993409;27;45320;-70
2022/09/03 05:09:45;;;;;;;;;9.33;9.33;;;;;;;;4990194;27;47447;-70
2022/09/03 05:12:11;;;;;;;;;7.33;7.33;;;;;;;;4994123;27;45532;-70
2022/09/03 05:14:37;;;;;;;;;11.33;11.00;;;;;;;;4996743;27;45462;-70
2022/09/03 05:17:02;;;;;;;;;14.00;12.00;;;;;;;;4994675;28;45243;-70
2022/09/03 05:19:28;;;;;;;;;13.00;12.67;;;;;;;;4991172;28;45298;-70
2022/09/03 05:21:53;;;;;;;;;10.67;10.67;;;;;;;;4986771;27;46117;-70
2022/09/03 05:24:18;;;;;;;;;11.00;11.00;;;;;;;;4981244;28;45525;-70
2022/09/03 05:26:43;;;;;;;;;11.67;11.67;;;;;;;;4996585;28;45355;-70
2022/09/03 05:29:09;;;;;;;;;11.67;9.67;;;;;;;;4990762;27;46372;-70
2022/09/03 05:31:35;;;;;;;;;11.67;9.33;;;;;;;;4995047;28;45431;-70
2022/09/03 05:34:02;;;;;;;;;13.00;12.00;;;;;;;;5002464;27;45324;-70
2022/09/03 05:36:28;;;;;;;;;9.00;9.00;;;;;;;;4994506;27;45426;-70
2022/09/03 05:38:53;;;;;;;;;13.00;11.00;;;;;;;;4991234;27;45404;-70
2022/09/03 05:41:19;;;;;;;;;11.33;11.33;;;;;;;;4994104;27;45382;-70
2022/09/03 05:43:46;;;;;;;;;9.67;9.33;;;;;;;;4988166;27;45432;-69
2022/09/03 05:46:17;;;;;;;;;12.33;11.00;;;;;;;;4995014;27;45406;-70
2022/09/03 05:48:42;;;;;;;;;9.00;9.00;;;;;;;;4989624;28;45333;-70
2022/09/03 05:51:09;;;;;;;;;11.67;10.00;;;;;;;;4993455;27;46295;-70
2022/09/03 05:53:35;;;;;;;;;11.00;11.00;;;;;;;;4990900;27;45430;-70
2022/09/03 05:56:01;;;;;;;;;11.00;11.00;;;;;;;;4993659;28;45297;-70
2022/09/03 05:58:34;;;;;;;;;13.00;12.00;;;;;;;;4990446;28;45459;-70
2022/09/03 06:00:59;;;;;;;;;14.00;12.00;;;;;;;;4989389;28;47769;-70
2022/09/03 06:03:25;;;;;;;;;11.67;11.67;;;;;;;;4990239;28;45491;-70
2022/09/03 06:05:51;;;;;;;;;9.67;8.67;;;;;;;;4993901;28;45441;-70
2022/09/03 06:08:16;;;;;;;;;15.67;9.00;;;;;;;;4988963;27;45736;-70
2022/09/03 06:10:41;;;;;;;;;15.00;11.33;;;;;;;;4993328;27;45492;-70
2022/09/03 06:13:07;;;;;;;;;11.33;11.33;;;;;;;;4990293;28;45614;-70
2022/09/03 06:15:32;;;;;;;;;13.00;12.33;;;;;;;;4993824;27;45445;-70
2022/09/03 06:17:57;;;;;;;;;12.67;10.33;;;;;;;;4990370;28;45452;-71
2022/09/03 06:20:26;;;;;;;;;11.33;11.33;;;;;;;;4993443;28;46270;-70
2022/09/03 06:22:52;;;;;;;;;12.67;9.00;;;;;;;;4990492;27;45429;-70
2022/09/03 06:25:18;;;;;;;;;14.67;11.67;;;;;;;;4990038;27;45333;-70
2022/09/03 06:27:43;;;;;;;;;9.00;6.33;;;;;;;;4990714;28;45555;-70
2022/09/03 06:30:08;;;;;;;;;11.00;10.67;;;;;;;;4977296;28;45560;-70
2022/09/03 06:32:34;;;;;;;;;13.67;13.67;;;;;;;;4979041;28;45429;-70
2022/09/03 06:34:59;;;;;;;;;10.33;10.33;;;;;;;;4998522;27;45772;-70
2022/09/03 06:37:24;;;;;;;;;12.33;11.33;;;;;;;;4984350;27;46425;-70
2022/09/03 06:39:50;;;;;;;;;14.00;13.00;;;;;;;;4983841;27;45472;-71
2022/09/03 06:42:16;;;;;;;;;14.00;13.33;;;;;;;;4992029;27;45602;-70
2022/09/03 06:44:44;;;;;;;;;15.00;12.00;;;;;;;;4987034;27;45755;-70
2022/09/03 06:47:09;;;;;;;;;12.67;11.67;;;;;;;;4993640;27;45943;-70
2022/09/03 06:49:34;;;;;;;;;12.00;11.33;;;;;;;;4978687;27;45274;-71
2022/09/03 06:51:59;;;;;;;;;11.00;10.67;;;;;;;;4976797;27;45693;-70
2022/09/03 06:54:24;;;;;;;;;13.33;12.33;;;;;;;;4985989;27;45455;-71
2022/09/03 06:56:50;;;;;;;;;5.00;4.00;;;;;;;;4988834;28;45539;-71
2022/09/03 06:59:15;;;;;;;;;15.00;11.67;;;;;;;;4986892;27;46222;-71
2022/09/03 07:01:42;;;;;;;;;11.67;10.67;;;;;;;;4991704;27;45367;-71
2022/09/03 07:04:08;;;;;;;;;11.67;10.33;;;;;;;;4989968;28;45278;-71
2022/09/03 07:06:36;;;;;;;;;14.00;10.67;;;;;;;;4991772;27;45266;-71
2022/09/03 07:09:01;;;;;;;;;9.00;9.00;;;;;;;;4984544;27;47697;-71
2022/09/03 07:11:29;;;;;;;;;13.67;13.67;;;;;;;;4980498;27;45408;-71
2022/09/03 07:13:55;;;;;;;;;9.67;9.67;;;;;;;;4987019;27;44800;-71
2022/09/03 07:16:25;;;;;;;;;13.00;13.00;;;;;;;;4982505;28;45625;-71
2022/09/03 07:18:51;;;;;;;;;13.00;12.00;;;;;;;;4988651;27;46193;-71
2022/09/03 07:21:18;;;;;;;;;11.67;11.67;;;;;;;;4985877;27;45236;-72
2022/09/03 07:23:43;;;;;;;;;13.67;13.00;;;;;;;;4978898;28;45477;-71
2022/09/03 07:26:16;;;;;;;;;13.33;11.33;;;;;;;;4986055;27;46157;-71
2022/09/03 07:28:42;;;;;;;;;12.00;10.00;;;;;;;;4985620;27;45327;-72
2022/09/03 07:31:10;;;;;;;;;17.00;16.33;;;;;;;;4990751;28;45537;-71
2022/09/03 07:33:36;;;;;;;;;10.33;10.33;;;;;;;;4989010;27;45434;-72
2022/09/03 07:36:13;;;;;;;;;11.33;11.33;;;;;;;;4997686;27;46123;-71
2022/09/03 07:38:39;;;;;;;;;8.00;7.67;;;;;;;;4990820;27;47287;-71
2022/09/03 07:41:05;;;;;;;;;10.00;9.67;;;;;;;;4986209;28;45412;-72
2022/09/03 07:43:35;;;;;;;;;8.67;8.00;;;;;;;;4981971;27;45165;-71
2022/09/03 07:46:00;;;;;;;;;11.67;10.33;;;;;;;;4979148;27;45498;-71
2022/09/03 07:48:25;;;;;;;;;9.33;8.00;;;;;;;;4979197;28;45379;-71
2022/09/03 07:50:51;;;;;;;;;11.00;8.00;;;;;;;;4983350;27;45401;-71
2022/09/03 07:53:16;;;;;;;;;10.00;8.00;;;;;;;;4987147;27;45453;-71
2022/09/03 07:55:43;;;;;;;;;10.67;10.67;;;;;;;;4984783;28;45433;-72
2022/09/03 07:58:09;;;;;;;;;8.67;8.67;;;;;;;;4979030;27;47540;-71
2022/09/03 08:00:34;;;;;;;;;9.00;9.00;;;;;;;;4991318;27;45364;-72
2022/09/03 08:03:04;;;;;;;;;6.33;6.33;;;;;;;;4983767;28;44748;-72
2022/09/03 08:05:31;;;;;;;;;8.00;7.00;;;;;;;;4988171;27;45472;-72
2022/09/03 08:07:58;;;;;;;;;10.00;7.00;;;;;;;;4987251;27;45396;-72
2022/09/03 08:10:25;;;;;;;;;11.00;9.00;;;;;;;;4989243;27;45511;-71
2022/09/03 08:12:50;;;;;;;;;10.00;10.00;;;;;;;;4989181;28;45327;-72
2022/09/03 08:15:15;;;;;;;;;8.33;8.00;;;;;;;;4990024;28;45400;-71
2022/09/03 08:17:42;;;;;;;;;8.33;8.33;;;;;;;;4992222;27;46118;-71
2022/09/03 08:20:08;;;;;;;;;10.33;8.00;;;;;;;;4990455;27;45386;-71
2022/09/03 08:22:34;;;;;;;;;8.33;8.33;;;;;;;;4980994;28;45339;-71
2022/09/03 08:24:59;;;;;;;;;12.00;11.67;;;;;;;;4983156;27;45479;-70
2022/09/03 08:27:25;;;;;;;;;8.00;8.00;;;;;;;;4983310;27;45383;-71
2022/09/03 08:29:50;;;;;;;;;9.00;8.00;;;;;;;;4984349;28;45325;-72
2022/09/03 08:32:15;;;;;;;;;8.00;7.00;;;;;;;;4983139;27;45305;-71
2022/09/03 08:34:40;;;;;;;;;8.67;8.67;;;;;;;;5007969;27;45303;-72
2022/09/03 08:37:08;;;;;;;;;11.00;10.00;;;;;;;;4986248;28;45537;-71
2022/09/03 08:39:33;;;;;;;;;12.33;11.00;;;;;;;;4985757;28;45443;-72
2022/09/03 08:42:24;;;;;;;;;6.75;6.75;;;;;;;;4990146;27;45609;-72
2022/09/03 08:44:53;;;;;;;;;7.25;6.50;;;;;;;;4983179;27;45303;-72
2022/09/03 08:47:21;;;;;;;;;7.75;6.00;;;;;;;;4987503;27;47382;-72
2022/09/03 08:50:05;;;;;;;;;9.25;6.25;;;;;;;;4980276;27;45461;-72
2022/09/03 08:52:37;;;;;;;;;5.50;5.50;;;;;;;;4991948;28;45427;-72
2022/09/03 08:55:05;;;;;;;;;4.00;4.00;;;;;;;;4989631;27;45277;-72
2022/09/03 08:57:35;;;;;;;;;7.00;5.25;;;;;;;;4986825;28;45240;-72
2022/09/03 09:00:01;;;;;;;;;5.00;5.00;;;;;;;;4982233;27;45379;-72
2022/09/03 09:02:35;;;;;;;;;6.00;5.00;;;;;;;;4989900;28;45482;-72
2022/09/03 09:05:09;;;;;;;;;6.00;6.00;;;;;;;;4985376;27;45339;-72
2022/09/03 09:07:34;;;;;;;;;4.25;4.25;;;;;;;;4990349;27;45355;-72
2022/09/03 09:10:15;;;;;;;;;7.00;5.25;;;;;;;;4985893;27;45358;-71
2022/09/03 09:12:46;;;;;;;;;3.50;3.50;;;;;;;;4991755;27;45269;-70
2022/09/03 09:15:12;;;;;;;;;4.75;4.75;;;;;;;;4984971;27;45300;-73
2022/09/03 09:17:56;;;;;;;;;4.75;4.50;;;;;;;;4984384;27;45264;-73
2022/09/03 09:20:34;;;;;;;;;4.80;3.60;;;;;;;;4988679;27;45576;-72
2022/09/03 09:22:59;;;;;;;;;2.50;2.50;;;;;;;;4995451;27;45541;-71
2022/09/03 09:25:25;;;;;;;;;3.75;3.75;;;;;;;;4985612;28;45485;-72
2022/09/03 09:27:57;;;;;;;;;3.80;3.40;;;;;;;;4984790;27;45443;-72
2022/09/03 09:30:22;;;;;;;;;4.00;2.80;;;;;;;;4981269;27;45485;-72
2022/09/03 09:32:48;;;;;;;;;3.25;2.25;;;;;;;;4983618;27;45409;-71
2022/09/03 09:35:15;;;;;;;;;3.25;3.25;;;;;;;;5007836;27;46046;-71
2022/09/03 09:37:51;;;;;;;;;2.40;2.40;;;;;;;;4983941;27;46543;-70
2022/09/03 09:40:31;;;;;;;;;3.20;3.20;;;;;;;;4981821;27;45480;-72
2022/09/03 09:43:05;;;;;;;;;4.40;3.40;;;;;;;;4983897;27;45440;-72
2022/09/03 09:45:32;;;;;;;;;2.20;2.20;;;;;;;;4996362;27;46177;-72
2022/09/03 09:47:58;;;;;;;;;4.20;2.60;;;;;;;;4977562;28;45333;-72
2022/09/03 09:50:23;;;;;;;;;3.00;1.25;;;;;;;;4980482;27;45215;-72
2022/09/03 09:52:58;;;;;;;;;3.00;2.00;;;;;;;;4986687;28;45192;-72
2022/09/03 09:55:25;;;;;;;;;3.80;3.20;;;;;;;;4991737;28;45394;-72
2022/09/03 09:57:52;;;;;;;;;0.20;0.20;;;;;;;;4989200;27;46751;-72
2022/09/03 10:00:17;;;;;;;;;3.80;2.80;;;;;;;;4991917;27;45481;-71
2022/09/03 10:02:49;;;;;;;;;1.75;1.75;;;;;;;;4979659;27;45374;-71
2022/09/03 10:05:25;;;;;;;;;3.80;3.20;;;;;;;;4980063;28;45476;-71
2022/09/03 10:07:55;;;;;;;;;4.00;3.80;;;;;;;;4980494;27;45484;-71
2022/09/03 10:10:20;;;;;;;;;3.20;3.20;;;;;;;;4982866;28;45335;-71
2022/09/03 10:12:49;;;;;;;;;3.25;3.25;;;;;;;;4979025;28;45426;-72
2022/09/03 10:15:18;;;;;;;;;4.60;3.20;;;;;;;;4995380;27;45458;-72
2022/09/03 10:17:52;;;;;;;;;3.00;3.00;;;;;;;;4989815;27;47021;-72
2022/09/03 10:20:26;;;;;;;;;2.80;2.80;;;;;;;;4984185;28;45689;-72
2022/09/03 10:23:14;;;;;;;;;3.20;3.20;;;;;;;;4977677;28;45249;-72
2022/09/03 10:25:49;;;;;;;;;3.20;2.20;;;;;;;;4984035;28;45549;-72
2022/09/03 10:28:14;;;;;;;;;0.80;0.80;;;;;;;;4984238;28;47270;-72
2022/09/03 10:30:48;;;;;;;;;4.00;3.25;;;;;;;;4986238;28;45427;-72
2022/09/03 10:33:17;;;;;;;;;3.00;3.00;;;;;;;;4988811;28;45369;-72
2022/09/03 10:35:48;;;;;;;;;2.25;2.25;;;;;;;;4998360;27;45501;-72
2022/09/03 10:38:19;;;;;;;;;2.80;2.80;;;;;;;;4976743;28;46164;-72
2022/09/03 10:40:54;;;;;;;;;3.00;3.00;;;;;;;;4937679;28;1139900;-72
2022/09/03 10:43:37;;;;;;;;;3.00;2.00;;;;;;;;4978665;27;45320;-72
2022/09/03 10:46:09;;;;;;;;;3.20;2.20;;;;;;;;4980695;28;46890;-73
2022/09/03 10:48:34;;;;;;;;;3.80;3.20;;;;;;;;4977412;27;45406;-72
2022/09/03 10:51:03;;;;;;;;;6.00;4.75;;;;;;;;4983879;28;45525;-73
2022/09/03 10:53:45;;;;;;;;;9.00;5.80;;;;;;;;4981114;28;45713;-73
2022/09/03 10:56:11;;;;;;;;;4.40;4.40;;;;;;;;4982956;28;45369;-72
2022/09/03 10:58:48;;;;;;;;;3.00;3.00;;;;;;;;4994935;27;48006;-72
2022/09/03 11:01:36;;;;;;;;;2.40;2.40;;;;;;;;4993314;27;45411;-72
2022/09/03 11:04:19;;;;;;;;;3.80;3.80;;;;;;;;4984094;28;45220;-72
2022/09/03 11:06:56;;;;;;;;;3.20;3.20;;;;;;;;4991523;28;45383;-72
2022/09/03 11:09:27;;;;;;;;;2.40;2.40;;;;;;;;4984927;28;46523;-72
2022/09/03 11:11:56;;;;;;;;;4.40;4.40;;;;;;;;4991139;28;45397;-72
2022/09/03 11:14:30;;;;;;;;;4.40;3.80;;;;;;;;4986836;27;45461;-72
2022/09/03 11:17:02;;;;;;;;;2.80;2.80;;;;;;;;4989202;27;45256;-72
2022/09/03 11:19:37;;;;;;;;;2.40;2.40;;;;;;;;4978390;28;45430;-72
2022/09/03 11:22:05;;;;;;;;;3.80;3.80;;;;;;;;4976851;27;45288;-73
2022/09/03 11:24:31;;;;;;;;;3.80;3.80;;;;;;;;4980473;28;45276;-73
2022/09/03 11:27:03;;;;;;;;;3.40;3.40;;;;;;;;4981762;27;45158;-73
2022/09/03 11:29:51;;;;;;;;;4.40;3.20;;;;;;;;4981152;28;45276;-72
2022/09/03 11:32:22;;;;;;;;;3.80;3.80;;;;;;;;4983661;28;45548;-73
2022/09/03 11:34:49;;;;;;;;;4.60;4.60;;;;;;;;4989471;27;45319;-72
2022/09/03 11:37:20;;;;;;;;;5.00;3.80;;;;;;;;4992848;27;45559;-73
2022/09/03 11:40:03;;;;;;;;;5.40;4.40;;;;;;;;4982157;27;45401;-72
2022/09/03 11:42:32;;;;;;;;;4.00;4.00;;;;;;;;4984641;27;45500;-73
2022/09/03 11:45:16;;;;;;;;;1.60;1.60;;;;;;;;4979666;28;45552;-73
2022/09/03 11:47:42;;;;;;;;;3.20;3.20;;;;;;;;4978498;27;45313;-73
2022/09/03 11:50:26;;;;;;;;;3.00;3.00;;;;;;;;4979955;28;45385;-73
2022/09/03 11:53:15;;;;;;;;;4.00;4.00;;;;;;;;4989341;27;45455;-73
2022/09/03 11:55:52;;;;;;;;;2.00;2.00;;;;;;;;4985327;27;45427;-74
2022/09/03 11:58:34;;;;;;;;;2.20;2.20;;;;;;;;4981284;28;45486;-73
2022/09/03 12:01:00;;;;;;;;;2.40;2.40;;;;;;;;4985176;27;46289;-73
2022/09/03 12:03:36;;;;;;;;;1.20;1.20;;;;;;;;4983215;28;45246;-73
2022/09/03 12:06:29;;;;;;;;;3.00;3.00;;;;;;;;4990126;28;45296;-73
2022/09/03 12:09:13;;;;;;;;;3.40;2.40;;;;;;;;4989230;27;45315;-73
2022/09/03 12:11:43;;;;;;;;;2.40;2.40;;;;;;;;4989530;27;46117;-73
2022/09/03 12:14:17;;;;;;;;;1.20;1.20;;;;;;;;4986597;27;45519;-73
2022/09/03 12:16:51;;;;;;;;;3.00;3.00;;;;;;;;4991254;28;45497;-73
2022/09/03 12:19:27;;;;;;;;;2.40;2.40;;;;;;;;4981846;27;45967;-72
2022/09/03 12:21:54;;;;;;;;;3.20;2.20;;;;;;;;4983328;27;46434;-73
2022/09/03 12:24:19;;;;;;;;;4.00;2.80;;;;;;;;4988762;27;45373;-73
2022/09/03 12:26:44;;;;;;;;;0.25;0.25;;;;;;;;4987587;27;45214;-72
2022/09/03 12:29:24;;;;;;;;;3.00;2.00;;;;;;;;4987151;27;46115;-72
2022/09/03 12:31:50;;;;;;;;;1.80;1.80;;;;;;;;4983401;27;48358;-72
2022/09/03 12:34:16;;;;;;;;;2.00;2.00;;;;;;;;5009290;27;45429;-72
2022/09/03 12:36:52;;;;;;;;;2.80;2.60;;;;;;;;4992324;28;45374;-73
2022/09/03 12:39:24;;;;;;;;;0.80;0.80;;;;;;;;4979034;28;46201;-72
2022/09/03 12:42:00;;;;;;;;;2.40;2.40;;;;;;;;4989283;27;45272;-72
2022/09/03 12:44:45;;;;;;;;;2.20;2.20;;;;;;;;4983872;27;45877;-73
2022/09/03 12:47:11;;;;;;;;;1.80;1.80;;;;;;;;4990979;27;45270;-73
2022/09/03 12:49:38;;;;;;;;;0.20;0.20;;;;;;;;4983921;27;46189;-73
2022/09/03 12:52:10;;;;;;;;;1.00;1.00;;;;;;;;4987373;28;46099;-73
2022/09/03 12:54:41;;;;;;;;;0.80;0.80;;;;;;;;4983685;27;45301;-73
2022/09/03 12:57:07;;;;;;;;;0.60;0.60;;;;;;;;4977381;27;45470;-73
2022/09/03 12:59:35;;;;;;;;;2.40;1.20;;;;;;;;4984947;28;45455;-72
2022/09/03 13:02:12;;;;;;;;;0.40;0.40;;;;;;;;4980232;28;45378;-74
2022/09/03 13:04:38;;;;;;;;;2.40;1.20;;;;;;;;4987545;27;45315;-73
2022/09/03 13:07:20;;;;;;;;;2.20;1.20;;;;;;;;4984709;28;45296;-73
2022/09/03 13:09:46;;;;;;;;;1.20;1.20;;;;;;;;4983849;28;45414;-73
2022/09/03 13:12:28;;;;;;;;;0.25;0.25;;;;;;;;4987639;28;48227;-73
2022/09/03 13:14:53;;;;;;;;;0.20;0.20;;;;;;;;4980127;28;45399;-73
2022/09/03 13:17:18;;;;;;;;;0.25;0.25;;;;;;;;4993134;27;45308;-73
2022/09/03 13:19:43;;;;;;;;;1.75;0.75;;;;;;;;4984897;27;46355;-73
2022/09/03 13:22:32;;;;;;;;;0.00;0.00;;;;;;;;4990862;27;46175;-73
2022/09/03 13:25:03;;;;;;;;;0.00;0.00;;;;;;;;4989347;27;46830;-73
2022/09/03 13:27:36;;;;;;;;;0.00;0.00;;;;;;;;4993215;27;45493;-72
2022/09/03 13:30:04;;;;;;;;;0.40;0.00;;;;;;;;4978407;28;46828;-73
2022/09/03 13:32:49;;;;;;;;;0.40;0.40;;;;;;;;4980939;27;46286;-73
2022/09/03 13:35:15;;;;;;;;;0.20;0.20;;;;;;;;5004630;27;45408;-72
2022/09/03 13:38:00;;;;;;;;;0.00;0.00;;;;;;;;4981119;28;45298;-73
2022/09/03 13:40:35;;;;;;;;;0.20;0.20;;;;;;;;4981585;28;45283;-72
2022/09/03 13:43:03;;;;;;;;;0.20;0.20;;;;;;;;4984932;28;45315;-72
2022/09/03 13:45:34;;;;;;;;;0.40;0.40;;;;;;;;4978804;27;45354;-71
2022/09/03 13:51:08;;;;;;;;;0.00;0.00;;;;;;;;4989004;27;45448;-72
2022/09/03 13:53:46;;;;;;;;;0.20;0.20;;;;;;;;4984490;28;46327;-73
2022/09/03 13:56:35;;;;;;;;;0.00;0.00;;;;;;;;4983370;27;45452;-72
2022/09/03 13:59:06;;;;;;;;;0.00;0.00;;;;;;;;4972799;27;45525;-72
2022/09/03 14:01:51;;;;;;;;;0.00;0.00;;;;;;;;4987062;27;46189;-74
2022/09/03 14:04:39;;;;;;;;;0.00;0.00;;;;;;;;4982577;28;48129;-72
2022/09/03 14:07:12;;;;;;;;;0.00;0.00;;;;;;;;4989829;28;45421;-72
2022/09/03 14:09:53;;;;;;;;;0.00;0.00;;;;;;;;4986073;28;45363;-73
2022/09/03 14:12:33;;;;;;;;;0.25;0.00;;;;;;;;4980766;27;46896;-73
2022/09/03 14:15:20;;;;;;;;;1.00;0.00;;;;;;;;4987445;27;45324;-73
2022/09/03 14:17:48;;;;;;;;;0.00;0.00;;;;;;;;4991893;27;45205;-72
2022/09/03 14:20:20;;;;;;;;;1.25;0.00;;;;;;;;4978857;28;45493;-73
2022/09/03 14:23:17;;;;;;;;;0.50;0.50;;;;;;;;4980842;28;45599;-72
2022/09/03 14:25:50;;;;;;;;;2.20;1.00;;;;;;;;4982928;28;45308;-73
2022/09/03 14:28:18;;;;;;;;;2.00;0.00;;;;;;;;4986887;28;45693;-73
2022/09/03 14:30:59;;;;;;;;;0.00;0.00;;;;;;;;4985932;27;46270;-72
2022/09/03 14:33:24;;;;;;;;;0.50;0.50;;;;;;;;4990278;27;45386;-73
2022/09/03 14:35:58;;;;;;;;;0.00;0.00;;;;;;;;5012656;27;45346;-73
2022/09/03 14:38:23;;;;;;;;;1.00;0.40;;;;;;;;4982405;27;45328;-73
2022/09/03 14:40:58;;;;;;;;;0.25;0.25;;;;;;;;4978930;28;45389;-73
2022/09/03 14:43:46;;;;;;;;;0.00;0.00;;;;;;;;4990363;28;47166;-73
2022/09/03 14:46:17;;;;;;;;;1.40;0.40;;;;;;;;4977552;28;46951;-73
2022/09/03 14:49:01;;;;;;;;;0.60;0.60;;;;;;;;4977072;28;45431;-73
2022/09/03 14:51:42;;;;;;;;;0.75;0.75;;;;;;;;4979557;28;45267;-73
2022/09/03 14:54:19;;;;;;;;;0.00;0.00;;;;;;;;4979297;27;45545;-72
2022/09/03 14:56:50;;;;;;;;;0.20;0.20;;;;;;;;4981232;28;46354;-73